Weather History for KCBK - May, 2012

Change the Weather History Date:

Wednesday, May 9, 2012

  Actual Average (KGLD) Record (KGLD)
Temperature  
Mean Temperature 58 °F 57 °F  
Max Temperature 80 °F 71 °F 97 °F (1916)
Min Temperature 35 °F 43 °F 27 °F (2002)
Degree Days  
Heating Degree Days 8 9  
Month to date heating degree days 89  
Since 1 July heating degree days 5744  
Cooling Degree Days 0 1  
Month to date cooling degree days 7  
Year to date cooling degree days 11  
Growing Degree Days 8 (Base 50)    
Moisture  
Dew Point 47 °F    
Average Humidity 63    
Maximum Humidity 100    
Minimum Humidity 39    
Precipitation  
Precipitation 0.00 in 0.08 in 1.09 in (2015)
Month to date precipitation 0.69  
Year to date precipitation 4.22  
Snow  
Snow - 0.00 in - ()
Month to date snowfall 0.3  
Since 1 July snowfall 35.3  
Snow Depth -    
Sea Level Pressure  
Sea Level Pressure 30.04 in    
Wind  
Wind Speed 7 mph ()    
Max Wind Speed 16 mph    
Max Gust Speed 20 mph    
Visibility 10.0 miles    
Events      
T = Trace of Precipitation, MM = Missing Value Source: Averaged Metar Reports

Daily Weather History Graph

Daily Weather History Graph

Search for Another Location

Airport or City:

Trip Planner

Search our weather history database for the weather conditions in past years. The results will help you decide how hot, cold, wet, or windy it might be!

Date:

Astronomy

May. 09, 2012 Rise Set
Actual Time 6:35 AM CDT 8:46 PM CDT
Civil Twilight 6:05 AM CDT 9:16 PM CDT
Nautical Twilight 5:29 AM CDT 9:52 PM CDT
Astronomical Twilight 4:49 AM CDT 10:32 PM CDT
Moon No Moon Rise 9:53 AM CDT (5/9)
Length of Visible Light 15h 10m
Length of Day
14h 10m
Waning Gibbous, 82% of the Moon is Illuminated
May 9
Waning Gibbous
May 12
Last Quarter
May 20
New
May 28
First Quarter
Jun 4
Full

Hourly Weather History & Observations

Time (CDT) Temp. Windchill Dew Point Humidity Pressure Visibility Wind Dir Wind Speed Gust Speed Precip Events Conditions
12:15 AM 46.4 °F 42.9 °F 41.0 °F 81% 30.15 in 10.0 mi ENE 6.9 mph - N/A   Clear
12:35 AM 46.4 °F 43.5 °F 41.0 °F 81% 30.15 in 10.0 mi East 5.8 mph - N/A   Clear
12:55 AM 44.6 °F 41.4 °F 41.0 °F 87% 30.15 in 10.0 mi East 5.8 mph - N/A   Clear
1:15 AM 44.6 °F 40.7 °F 39.2 °F 81% 30.15 in 10.0 mi East 6.9 mph - N/A   Clear
1:35 AM 44.6 °F 40.2 °F 39.2 °F 81% 30.15 in 10.0 mi East 8.1 mph - N/A   Clear
1:55 AM 44.6 °F 41.4 °F 39.2 °F 81% 30.15 in 10.0 mi ESE 5.8 mph - N/A   Clear
2:15 AM 44.6 °F 42.2 °F 39.2 °F 81% 30.15 in 10.0 mi East 4.6 mph - N/A   Clear
2:35 AM 44.6 °F 41.4 °F 39.2 °F 81% 30.15 in 10.0 mi ESE 5.8 mph - N/A   Clear
2:55 AM 42.8 °F 39.3 °F 39.2 °F 87% 30.15 in 10.0 mi ESE 5.8 mph - N/A   Clear
3:15 AM 44.6 °F 40.7 °F 39.2 °F 81% 30.14 in 10.0 mi ESE 6.9 mph - N/A   Clear
3:35 AM 42.8 °F 39.3 °F 39.2 °F 87% 30.14 in 10.0 mi ESE 5.8 mph - N/A   Clear
3:55 AM 42.8 °F 39.3 °F 39.2 °F 87% 30.14 in 10.0 mi ESE 5.8 mph - N/A   Clear
4:15 AM 44.6 °F 41.4 °F 39.2 °F 81% 30.14 in 10.0 mi SE 5.8 mph - N/A   Clear
4:35 AM 44.6 °F 41.4 °F 39.2 °F 81% 30.14 in 10.0 mi SSE 5.8 mph - N/A   Clear
4:55 AM 44.6 °F 43.1 °F 39.2 °F 81% 30.14 in 10.0 mi SSE 3.5 mph - N/A   Clear
5:15 AM 44.6 °F 43.1 °F 39.2 °F 81% 30.14 in 10.0 mi SSE 3.5 mph - N/A   Clear
5:35 AM 44.6 °F 43.1 °F 39.2 °F 81% 30.14 in 10.0 mi SSE 3.5 mph - N/A   Clear
5:55 AM 42.8 °F 41.1 °F 39.2 °F 87% 30.13 in 10.0 mi South 3.5 mph - N/A   Clear
6:15 AM 37.4 °F 33.8 °F 37.4 °F 100% 30.14 in 10.0 mi SW 4.6 mph - N/A   Clear
6:35 AM 35.6 °F 31.7 °F 35.6 °F 100% 30.14 in 10.0 mi SW 4.6 mph - N/A   Clear
6:55 AM 37.4 °F 33.8 °F 37.4 °F 100% 30.13 in 10.0 mi SW 4.6 mph - N/A   Clear
7:15 AM 39.2 °F 37.0 °F 39.2 °F 100% 30.13 in 10.0 mi SW 3.5 mph - N/A   Clear
7:35 AM 41.0 °F 39.0 °F 41.0 °F 100% 30.13 in 10.0 mi SW 3.5 mph - N/A   Clear
7:55 AM 44.6 °F 42.2 °F 42.8 °F 93% 30.13 in 10.0 mi SSW 4.6 mph - N/A   Clear
8:15 AM 51.8 °F - 44.6 °F 76% 30.13 in 10.0 mi South 8.1 mph - N/A   Clear
8:35 AM 53.6 °F - 44.6 °F 72% 30.13 in 10.0 mi SSE 9.2 mph - N/A   Clear
8:55 AM 55.4 °F - 44.6 °F 67% 30.13 in 10.0 mi South 9.2 mph - N/A   Clear
9:15 AM 57.2 °F - 46.4 °F 67% 30.13 in 10.0 mi SSE 11.5 mph - N/A   Clear
9:35 AM 59.0 °F - 46.4 °F 63% 30.13 in 10.0 mi SSE 15.0 mph - N/A   Clear
9:55 AM 60.8 °F - 46.4 °F 59% 30.13 in 10.0 mi South 16.1 mph - N/A   Clear
10:15 AM 60.8 °F - 46.4 °F 59% 30.12 in 10.0 mi SSE 11.5 mph 18.4 mph N/A   Clear
10:35 AM 62.6 °F - 48.2 °F 59% 30.11 in 10.0 mi SSE 11.5 mph 18.4 mph N/A   Clear
10:55 AM 64.4 °F - 50.0 °F 59% 30.10 in 10.0 mi South 10.4 mph 18.4 mph N/A   Clear
11:15 AM 66.2 °F - 50.0 °F 56% 30.10 in 10.0 mi SSE 12.7 mph - N/A   Clear
11:35 AM 68.0 °F - 51.8 °F 56% 30.09 in 10.0 mi South 13.8 mph - N/A   Clear
11:55 AM 69.8 °F - 51.8 °F 53% 30.09 in 10.0 mi SSW 9.2 mph 17.3 mph N/A   Clear
12:15 PM 69.8 °F - 51.8 °F 53% 30.08 in 10.0 mi South 9.2 mph - N/A   Clear
12:35 PM 71.6 °F - 53.6 °F 53% 30.07 in 10.0 mi SSE 10.4 mph - N/A   Clear
12:55 PM 73.4 °F - 53.6 °F 50% 30.07 in 10.0 mi South 10.4 mph - N/A   Clear
1:15 PM 73.4 °F - 53.6 °F 50% 30.05 in 10.0 mi South 9.2 mph 17.3 mph N/A   Clear
1:35 PM 75.2 °F - 53.6 °F 47% 30.04 in 10.0 mi SSW 5.8 mph - N/A   Clear
1:55 PM 75.2 °F - 51.8 °F 44% 30.03 in 10.0 mi Calm Calm - N/A   Clear
2:15 PM 77.0 °F - 51.8 °F 41% 30.02 in 10.0 mi West 8.1 mph - N/A   Clear
2:35 PM 77.0 °F - 51.8 °F 41% 30.02 in 10.0 mi WNW 3.5 mph - N/A   Clear
2:55 PM 78.8 °F - 51.8 °F 39% 30.00 in 10.0 mi WSW 3.5 mph - N/A   Clear
3:35 PM 80.6 °F - 55.4 °F 42% 29.98 in 10.0 mi SSW 8.1 mph 17.3 mph N/A   Clear
3:55 PM 78.8 °F - 55.4 °F 44% 29.97 in 10.0 mi WSW 5.8 mph - N/A   Clear
4:15 PM 80.6 °F - 55.4 °F 42% 29.96 in 10.0 mi SW 8.1 mph - N/A   Clear
4:55 PM 80.6 °F - 55.4 °F 42% 29.94 in 10.0 mi WSW 11.5 mph 18.4 mph N/A   Clear
5:15 PM 80.6 °F - 53.6 °F 39% 29.93 in 10.0 mi SSW 4.6 mph - N/A   Clear
5:35 PM 80.6 °F - 53.6 °F 39% 29.93 in 10.0 mi West 8.1 mph - N/A   Clear
5:55 PM 80.6 °F - 53.6 °F 39% 29.92 in 10.0 mi SSW 11.5 mph - N/A   Clear
6:15 PM 80.6 °F - 53.6 °F 39% 29.92 in 10.0 mi SW 5.8 mph - N/A   Clear
6:35 PM 80.6 °F - 53.6 °F 39% 29.91 in 10.0 mi SW 11.5 mph - N/A   Clear
6:55 PM 80.6 °F - 53.6 °F 39% 29.91 in 10.0 mi SSW 8.1 mph - N/A   Clear
7:15 PM 78.8 °F - 53.6 °F 42% 29.91 in 10.0 mi SSW 9.2 mph - N/A   Clear
7:35 PM 78.8 °F - 53.6 °F 42% 29.90 in 10.0 mi South 13.8 mph - N/A   Clear
7:55 PM 77.0 °F - 53.6 °F 44% 29.90 in 10.0 mi South 11.5 mph 17.3 mph N/A   Clear
8:15 PM 73.4 °F - 51.8 °F 47% 29.90 in 10.0 mi South 12.7 mph - N/A   Clear
8:35 PM 71.6 °F - 51.8 °F 50% 29.90 in 10.0 mi South 10.4 mph - N/A   Clear
8:55 PM 69.8 °F - 50.0 °F 49% 29.90 in 10.0 mi South 10.4 mph - N/A   Clear
9:15 PM 68.0 °F - 50.0 °F 52% 29.90 in 10.0 mi South 11.5 mph - N/A   Clear
9:35 PM 68.0 °F - 50.0 °F 52% 29.91 in 10.0 mi South 12.7 mph - N/A   Clear
9:55 PM 66.2 °F - 50.0 °F 56% 29.91 in 10.0 mi South 15.0 mph 19.6 mph N/A   Clear
10:15 PM 66.2 °F - 50.0 °F 56% 29.91 in 10.0 mi South 13.8 mph - N/A   Clear
10:35 PM 64.4 °F - 50.0 °F 59% 29.91 in 10.0 mi South 16.1 mph - N/A   Clear
10:55 PM 64.4 °F - 50.0 °F 59% 29.91 in 10.0 mi South 11.5 mph - N/A   Clear
11:15 PM 64.4 °F - 50.0 °F 59% 29.91 in 10.0 mi South 11.5 mph - N/A   Clear
11:35 PM 64.4 °F - 48.2 °F 56% 29.90 in 10.0 mi South 13.8 mph - N/A   Clear
11:55 PM 62.6 °F - 48.2 °F 59% 29.90 in 10.0 mi South 16.1 mph - N/A   Clear